Time;durP1;ratioP1;P1;durP2;ratioP2;P2;SDS_P1;SDS_P2;PMS_P1;PMS_P2;Temp;Humidity;BMP_temperature;BMP_pressure;BME280_temperature;BME280_humidity;BME280_pressure;Samples;Min_cycle;Max_cycle;Signal;HPM_P1;HPM_P2
2021/10/28 00:13:26;;;;;;;21.43;13.67;;;;;;;12.46;88.79;101310.03;6780055;85;99211;-84
2021/10/28 00:23:28;;;;;;;20.87;12.37;;;;;;;12.42;88.86;101310.57;6766391;85;99647;-85
2021/10/28 00:33:31;;;;;;;22.43;13.13;;;;;;;12.40;88.86;101315.64;6779543;85;99474;-85
2021/10/28 00:43:33;;;;;;;21.33;11.65;;;;;;;12.34;88.97;101307.45;6640549;86;99344;-84
2021/10/28 00:53:35;;;;;;;21.37;11.37;;;;;;;12.32;89.00;101296.77;6726858;86;118744;-84
2021/10/28 01:03:38;;;;;;;19.07;10.57;;;;;;;12.32;89.00;101293.23;6702161;86;99420;-84
2021/10/28 01:13:40;;;;;;;15.60;10.77;;;;;;;12.32;88.93;101295.99;6738658;86;99234;-84
2021/10/28 01:23:41;;;;;;;18.63;11.17;;;;;;;12.33;88.89;101310.00;6703368;86;99228;-84
2021/10/28 01:33:42;;;;;;;16.80;10.35;;;;;;;12.31;88.80;101293.80;6733543;85;99285;-85
2021/10/28 01:43:43;;;;;;;20.97;11.40;;;;;;;12.28;88.87;101292.36;6734123;85;99193;-85
2021/10/28 01:53:44;;;;;;;21.80;11.20;;;;;;;12.26;88.81;101296.09;6805137;85;99239;-84
2021/10/28 02:03:45;;;;;;;18.67;11.83;;;;;;;12.25;88.78;101293.89;6802246;85;99267;-85
2021/10/28 02:13:46;;;;;;;17.70;10.13;;;;;;;12.25;88.71;101291.13;6783675;85;99185;-84
2021/10/28 02:23:48;;;;;;;14.50;9.43;;;;;;;12.24;88.64;101290.11;6777476;85;99256;-85
2021/10/28 02:33:48;;;;;;;17.60;11.18;;;;;;;12.23;88.55;101293.47;6795541;85;103078;-85
2021/10/28 02:43:49;;;;;;;18.00;11.93;;;;;;;12.24;88.46;101304.73;6804923;85;99463;-83
2021/10/28 02:53:50;;;;;;;18.93;10.73;;;;;;;12.23;88.34;101311.41;6730501;86;99265;-84
2021/10/28 03:03:51;;;;;;;20.10;11.33;;;;;;;12.20;88.30;101316.27;6716333;86;99212;-84
2021/10/28 03:13:51;;;;;;;17.67;11.47;;;;;;;12.19;88.29;101312.49;6731871;85;99221;-84
2021/10/28 03:34:12;;;;;;;20.97;12.87;;;;;;;12.15;88.24;101330.97;6701864;86;99231;-83
2021/10/28 04:35:31;;;;;;;22.77;14.03;;;;;;;11.57;88.59;101350.03;6737026;86;99277;-87
2021/10/28 04:45:31;;;;;;;30.03;15.07;;;;;;;11.45;88.73;101361.19;6743505;85;104053;-85
2021/10/28 04:55:32;;;;;;;26.60;16.07;;;;;;;11.31;88.96;101356.16;6797083;85;99499;-84
2021/10/28 05:05:33;;;;;;;24.10;14.80;;;;;;;11.18;89.20;101350.52;6784295;84;99206;-85
2021/10/28 05:15:33;;;;;;;27.27;17.20;;;;;;;11.03;89.51;101345.86;6797812;84;99607;-84
2021/10/28 05:25:34;;;;;;;29.60;17.03;;;;;;;10.96;89.77;101351.18;6799689;85;109064;-84
2021/10/28 05:35:35;;;;;;;30.83;18.33;;;;;;;10.88;89.98;101361.00;6798526;84;99428;-84
2021/10/28 05:45:37;;;;;;;29.60;18.17;;;;;;;10.84;90.15;101364.27;6794674;85;99735;-85
2021/10/28 05:55:38;;;;;;;30.27;18.07;;;;;;;10.80;90.22;101373.02;6771954;85;99346;-85
2021/10/28 06:05:39;;;;;;;29.27;16.77;;;;;;;10.79;90.28;101383.81;6777881;85;99245;-83
2021/10/28 06:15:39;;;;;;;30.90;19.10;;;;;;;10.76;90.42;101383.94;6771956;85;106631;-85
2021/10/28 06:25:41;;;;;;;35.53;20.33;;;;;;;10.76;90.37;101396.90;6763502;85;99411;-83
2021/10/28 06:35:43;;;;;;;45.00;24.97;;;;;;;10.68;90.13;101400.04;6761404;84;99609;-84
2021/10/28 06:45:44;;;;;;;39.87;22.27;;;;;;;10.56;90.15;101407.00;6773984;85;99608;-89
2021/10/28 06:55:55;;;;;;;39.57;22.80;;;;;;;10.43;90.44;101410.17;6738103;85;111331;-90
2021/10/28 07:05:47;;;;;;;38.10;21.50;;;;;;;10.31;90.63;101402.77;6737133;85;99438;-90
2021/10/28 07:15:56;;;;;;;41.00;23.37;;;;;;;10.25;90.69;101403.39;6738208;85;99775;-89
2021/10/28 07:57:10;;;;;;;45.30;25.67;;;;;;;10.54;91.29;101394.75;6770830;84;99533;-88
2021/10/28 08:16:59;;;;;;;37.37;22.27;;;;;;;11.09;90.69;101388.50;6767099;85;99289;-91
2021/10/28 08:37:12;;;;;;;37.97;22.27;;;;;;;12.12;88.81;101382.73;6778689;85;99187;-92
2021/10/28 08:47:13;;;;;;;40.80;24.40;;;;;;;12.82;86.85;101368.25;6767512;85;99311;-91
2021/10/28 08:57:25;;;;;;;35.33;22.10;;;;;;;13.61;84.91;101369.11;6770887;84;99339;-92
2021/10/28 09:28:35;;;;;;;34.13;20.00;;;;;;;16.34;77.99;101345.03;6771615;85;99200;-91
2021/10/28 09:59:14;;;;;;;27.23;18.30;;;;;;;16.98;70.19;101332.81;6725325;86;99280;-94
2021/10/28 10:09:14;;;;;;;28.47;17.67;;;;;;;17.42;69.79;101333.98;6735198;86;99304;-92
2021/10/28 10:19:46;;;;;;;26.00;18.07;;;;;;;17.56;69.39;101326.19;6729862;86;99649;-92
2021/10/28 11:21:53;;;;;;;23.60;14.87;;;;;;;17.21;67.48;101292.25;6722343;86;99674;-95
2021/10/28 12:55:11;;;;;;;16.67;10.60;;;;;;;16.91;65.92;101184.87;6783687;85;99297;-95
2021/10/28 13:57:18;;;;;;;21.10;13.07;;;;;;;16.48;65.35;101151.40;6798221;85;99275;-95
2021/10/28 14:27:22;;;;;;;20.60;11.60;;;;;;;16.11;66.39;101146.02;6788868;82;99280;-92
2021/10/28 15:28:43;;;;;;;40.98;21.73;;;;;;;14.92;69.27;101110.46;6805218;84;99461;-90
2021/10/28 16:29:47;;;;;;;49.77;29.97;;;;;;;12.90;76.34;101074.36;6720517;85;176959;-91
2021/10/28 16:39:49;;;;;;;44.63;28.87;;;;;;;12.61;77.16;101068.28;6751743;85;99417;-91
2021/10/28 16:49:50;;;;;;;37.23;26.07;;;;;;;12.36;78.03;101064.37;6733528;86;99183;-93
2021/10/28 16:59:51;;;;;;;39.27;25.57;;;;;;;12.17;78.77;101060.95;6772191;84;130805;-89
2021/10/28 17:10:01;;;;;;;42.03;24.93;;;;;;;12.00;79.27;101065.62;6763814;85;99445;-91
2021/10/28 17:20:09;;;;;;;34.73;24.83;;;;;;;11.84;80.17;101061.61;6775170;85;99306;-88
2021/10/28 17:30:09;;;;;;;43.23;26.77;;;;;;;11.69;80.61;101048.78;6778327;85;112843;-89
2021/10/28 17:40:10;;;;;;;48.55;28.75;;;;;;;11.52;81.61;101050.63;6770567;85;99859;-89
2021/10/28 17:50:12;;;;;;;52.00;33.30;;;;;;;11.41;81.92;101048.84;6772467;84;99288;-91
2021/10/28 18:00:15;;;;;;;49.42;31.30;;;;;;;11.25;82.13;101040.70;6759332;85;99324;-91
2021/10/28 18:10:17;;;;;;;48.20;27.57;;;;;;;11.11;82.55;101037.68;6768382;83;99523;-90
2021/10/28 18:20:18;;;;;;;43.47;26.03;;;;;;;11.05;82.97;101040.52;6764073;85;246840;-90
2021/10/28 18:30:18;;;;;;;62.85;36.80;;;;;;;11.00;83.18;101029.80;6782729;84;99407;-90
2021/10/28 18:40:19;;;;;;;52.10;30.97;;;;;;;10.96;83.45;101020.66;6777876;85;103494;-91
2021/10/28 18:50:22;;;;;;;55.00;33.07;;;;;;;10.87;83.89;101013.23;6767849;85;144106;-90
2021/10/28 19:00:23;;;;;;;50.67;30.32;;;;;;;10.80;84.21;101006.80;6772185;84;99699;-91
2021/10/28 19:10:24;;;;;;;49.33;30.43;;;;;;;10.71;84.56;100993.25;6773194;85;99706;-89
2021/10/28 19:20:26;;;;;;;52.77;30.73;;;;;;;10.61;84.79;100982.83;6769053;85;99235;-90
2021/10/28 19:30:36;;;;;;;52.10;32.97;;;;;;;10.52;84.88;100980.09;6769452;85;98947;-90
2021/10/28 19:40:57;;;;;;;63.97;37.37;;;;;;;10.42;85.51;100964.16;6770288;85;140646;-92
2021/10/28 19:50:48;;;;;;;52.07;32.60;;;;;;;10.28;85.89;100961.10;6716493;85;2005514;-91
2021/10/28 20:00:59;;;;;;;58.15;35.13;;;;;;;10.16;86.20;100948.87;6679143;86;2437382;-89
2021/10/28 20:21:13;;;;;;;57.53;34.07;;;;;;;10.01;86.98;100945.00;6717690;86;99303;-92
2021/10/28 20:31:19;;;;;;;59.53;34.13;;;;;;;9.95;87.26;100933.27;6707701;86;175755;-89
2021/10/28 20:41:20;;;;;;;54.37;33.53;;;;;;;9.89;87.38;100932.77;6720885;84;111726;-91
2021/10/28 20:51:22;;;;;;;61.20;35.65;;;;;;;9.85;87.40;100931.88;6610070;84;5554072;-91
2021/10/28 21:01:23;;;;;;;58.10;34.50;;;;;;;9.81;87.51;100919.23;6785830;85;99345;-90
2021/10/28 21:11:25;;;;;;;56.97;33.63;;;;;;;9.74;87.55;100917.67;6779263;85;183149;-91
2021/10/28 21:21:26;;;;;;;48.48;30.37;;;;;;;9.66;87.52;100911.81;6775373;85;102362;-88
2021/10/28 21:31:27;;;;;;;56.10;32.57;;;;;;;9.58;87.40;100910.86;6766740;85;99078;-89
2021/10/28 21:41:28;;;;;;;58.73;33.03;;;;;;;9.52;87.53;100898.55;6789644;85;98767;-90
2021/10/28 21:51:29;;;;;;;55.53;32.30;;;;;;;9.41;87.33;100900.83;6771921;84;98915;-88
2021/10/28 22:01:51;;;;;;;53.80;30.73;;;;;;;9.31;87.33;100900.81;6789331;85;98553;-84
2021/10/28 22:32:30;;;;;;;48.67;29.03;;;;;;;8.99;87.17;100889.62;6790526;84;98884;-85
2021/10/28 22:42:33;;;;;;;52.40;30.97;;;;;;;8.87;87.37;100883.43;6785611;85;98999;-84
2021/10/28 22:52:34;;;;;;;;;;;;;;;8.77;87.58;100870.27;6770511;85;98998;-84
2021/10/28 23:22:51;;;;;;;51.27;29.70;;;;;;;8.40;87.65;100851.06;6741846;86;98961;-84
2021/10/28 23:32:52;;;;;;;53.50;30.17;;;;;;;8.31;88.10;100838.89;6711009;85;98992;-84
2021/10/28 23:42:54;;;;;;;47.53;27.07;;;;;;;8.25;88.33;100829.90;6712089;86;99892;-85
2021/10/28 23:52:55;;;;;;;47.40;27.60;;;;;;;8.15;87.95;100827.63;6725001;86;99447;-84
